Time;durP1;ratioP1;P1;durP2;ratioP2;P2;SDS_P1;SDS_P2;PMS_P1;PMS_P2;Temp;Humidity;BMP_temperature;BMP_pressure;BME280_temperature;BME280_humidity;BME280_pressure;Samples;Min_cycle;Max_cycle;Signal;HPM_P1;HPM_P2
2021/12/26 00:00:29;;;;;;;15.33;6.13;;;;;;;-7.90;100.00;99714.56;1796897;79;21009;-71
2021/12/26 00:02:58;;;;;;;19.13;7.77;;;;;;;-7.91;100.00;99729.05;1773161;79;21155;-70
2021/12/26 00:05:25;;;;;;;21.53;8.40;;;;;;;-7.94;100.00;99727.65;1761804;80;21192;-70
2021/12/26 00:07:51;;;;;;;18.80;8.33;;;;;;;-7.99;100.00;99735.59;1754784;81;21115;-69
2021/12/26 00:10:21;;;;;;;18.17;6.70;;;;;;;-8.05;100.00;99739.22;1754391;81;21088;-71
2021/12/26 00:12:48;;;;;;;23.37;9.80;;;;;;;-8.12;100.00;99736.02;1744362;81;21060;-70
2021/12/26 00:15:15;;;;;;;20.70;8.00;;;;;;;-8.15;100.00;99729.13;1763456;81;22149;-70
2021/12/26 00:17:43;;;;;;;19.27;7.37;;;;;;;-8.24;100.00;99724.59;1766199;80;21019;-70
2021/12/26 00:20:11;;;;;;;24.77;8.83;;;;;;;-8.23;100.00;99728.05;1782476;80;21105;-71
2021/12/26 00:22:39;;;;;;;16.10;7.67;;;;;;;-8.27;100.00;99736.00;1782346;80;21057;-71
2021/12/26 00:25:08;;;;;;;17.67;6.93;;;;;;;-8.31;100.00;99742.24;1782236;80;21074;-69
2021/12/26 00:27:35;;;;;;;17.07;6.83;;;;;;;-8.35;100.00;99738.73;1782856;80;21101;-70
2021/12/26 00:30:05;;;;;;;16.70;6.73;;;;;;;-8.38;100.00;99748.83;1783044;80;21074;-70
2021/12/26 00:32:32;;;;;;;16.73;7.05;;;;;;;-8.42;100.00;99747.02;1784179;80;21117;-70
2021/12/26 00:34:59;;;;;;;15.97;5.80;;;;;;;-8.46;100.00;99749.05;1783282;80;21043;-71
2021/12/26 00:37:26;;;;;;;16.37;6.60;;;;;;;-8.51;100.00;99744.17;1782950;80;21066;-71
2021/12/26 00:39:53;;;;;;;14.13;6.07;;;;;;;-8.54;100.00;99741.52;1782645;80;21126;-71
2021/12/26 00:42:19;;;;;;;16.37;6.10;;;;;;;-8.54;100.00;99737.28;1782553;80;21094;-71
2021/12/26 00:44:46;;;;;;;15.73;6.03;;;;;;;-8.55;100.00;99737.25;1782605;80;21027;-70
2021/12/26 00:47:13;;;;;;;19.30;7.50;;;;;;;-8.58;100.00;99744.78;1782434;80;21576;-71
2021/12/26 00:49:39;;;;;;;18.40;8.20;;;;;;;-8.60;100.00;99750.25;1782606;80;21035;-70
2021/12/26 00:52:07;;;;;;;25.03;8.67;;;;;;;-8.64;100.00;99743.33;1783589;80;21236;-72
2021/12/26 00:54:34;;;;;;;20.63;8.27;;;;;;;-8.66;100.00;99750.92;1784369;80;21062;-73
2021/12/26 00:57:01;;;;;;;17.93;7.93;;;;;;;-8.70;100.00;99747.38;1783869;80;21574;-72
2021/12/26 00:59:27;;;;;;;19.20;8.27;;;;;;;-8.72;100.00;99746.88;1783732;80;21012;-73
2021/12/26 01:01:54;;;;;;;21.67;8.00;;;;;;;-8.73;100.00;99743.46;1808322;79;21114;-72
2021/12/26 01:04:21;;;;;;;19.13;6.70;;;;;;;-8.74;100.00;99740.47;1817977;78;21595;-71
2021/12/26 01:06:47;;;;;;;20.70;8.83;;;;;;;-8.72;100.00;99740.11;1812680;79;21494;-73
2021/12/26 01:09:21;;;;;;;22.13;9.40;;;;;;;-8.72;100.00;99742.66;1788086;80;21064;-73
2021/12/26 01:11:49;;;;;;;19.33;6.57;;;;;;;-8.72;100.00;99737.56;1816134;78;20982;-72
2021/12/26 01:14:14;;;;;;;17.67;7.22;;;;;;;-8.72;100.00;99734.11;1777519;80;21057;-73
2021/12/26 01:17:05;;;;;;;14.37;5.97;;;;;;;-8.73;100.00;99738.77;1813955;79;21114;-72
2021/12/26 01:19:34;;;;;;;22.43;7.50;;;;;;;-8.76;100.00;99731.88;1784030;79;21033;-73
2021/12/26 01:21:58;;;;;;;16.27;6.53;;;;;;;-8.75;100.00;99731.05;1811274;79;21045;-72
2021/12/26 01:24:25;;;;;;;14.23;6.17;;;;;;;-8.77;100.00;99736.51;1784394;80;21030;-70
2021/12/26 01:26:52;;;;;;;21.60;7.20;;;;;;;-8.76;100.00;99738.27;1811722;79;21162;-69
2021/12/26 01:29:26;;;;;;;18.30;6.90;;;;;;;-8.74;100.00;99741.73;1782963;79;22112;-69
2021/12/26 01:31:52;;;;;;;16.43;7.00;;;;;;;-8.75;100.00;99742.53;1812034;79;21569;-70
2021/12/26 01:34:37;;;;;;;19.13;6.80;;;;;;;-8.75;100.00;99739.98;1758938;79;21021;-69
2021/12/26 01:37:09;;;;;;;17.23;7.47;;;;;;;-8.72;100.00;99740.11;1792096;79;21057;-71
2021/12/26 01:39:46;;;;;;;20.97;8.33;;;;;;;-8.74;100.00;99736.63;1756629;80;21073;-70
2021/12/26 01:42:27;;;;;;;17.65;7.55;;;;;;;-8.75;100.00;99747.64;1793571;79;21133;-71
2021/12/26 01:45:07;;;;;;;17.23;7.70;;;;;;;-8.78;100.00;99747.55;1816370;78;21016;-73
2021/12/26 01:47:36;;;;;;;17.53;7.47;;;;;;;-8.80;100.00;99761.94;1816016;78;21053;-72
2021/12/26 01:50:05;;;;;;;15.83;6.90;;;;;;;-8.79;100.00;99761.52;1818587;78;21069;-71
2021/12/26 01:52:32;;;;;;;25.67;8.37;;;;;;;-8.82;100.00;99763.56;1818593;78;21076;-69
2021/12/26 01:55:21;;;;;;;16.60;7.53;;;;;;;-8.81;100.00;99766.59;1818534;78;21815;-70
2021/12/26 01:57:30;;;;;;;18.97;7.90;;;;;;;-8.89;100.00;99768.00;1815362;78;21088;-70
2021/12/26 01:59:57;;;;;;;18.23;7.67;;;;;;;-8.92;100.00;99764.08;1818249;78;21030;-71
2021/12/26 02:02:27;;;;;;;18.23;7.47;;;;;;;-8.98;100.00;99760.02;1794820;79;21005;-70
2021/12/26 02:04:54;;;;;;;20.07;7.10;;;;;;;-9.00;100.00;99759.09;1762225;79;21051;-70
2021/12/26 02:07:21;;;;;;;14.00;6.70;;;;;;;-9.01;100.00;99752.27;1812983;79;21083;-70
2021/12/26 02:09:50;;;;;;;19.33;6.87;;;;;;;-9.05;100.00;99754.25;1812801;79;21691;-70
2021/12/26 02:12:18;;;;;;;20.63;8.63;;;;;;;-9.08;100.00;99750.77;1812824;79;21031;-70
2021/12/26 02:14:45;;;;;;;19.80;9.07;;;;;;;-9.03;100.00;99759.86;1813146;79;21600;-69
2021/12/26 02:17:17;;;;;;;18.23;8.03;;;;;;;-9.03;100.00;99762.83;1811956;79;21105;-69
2021/12/26 02:19:45;;;;;;;23.73;8.03;;;;;;;-9.03;100.00;99760.27;1813083;79;21828;-70
2021/12/26 02:22:17;;;;;;;19.07;7.57;;;;;;;-9.05;100.00;99763.17;1812853;79;21018;-72
2021/12/26 02:27:32;;;;;;;20.63;7.20;;;;;;;-9.14;100.00;99768.40;1812850;79;21486;-69
2021/12/26 02:30:09;;;;;;;16.80;6.90;;;;;;;-9.14;100.00;99767.13;1812861;79;21109;-70
2021/12/26 02:32:36;;;;;;;19.83;8.00;;;;;;;-9.14;100.00;99769.67;1813414;79;21111;-68
2021/12/26 02:35:04;;;;;;;37.50;15.10;;;;;;;-9.17;100.00;99773.41;1812844;79;21087;-69
2021/12/26 02:37:31;;;;;;;32.03;13.10;;;;;;;-9.21;100.00;99763.89;1813157;79;21070;-69
2021/12/26 02:39:58;;;;;;;31.13;12.23;;;;;;;-9.23;100.00;99775.72;1812685;79;21022;-69
2021/12/26 02:42:25;;;;;;;26.20;11.13;;;;;;;-9.24;100.00;99772.72;1812914;79;21015;-69
2021/12/26 02:44:52;;;;;;;29.37;11.57;;;;;;;-9.24;100.00;99775.69;1812864;79;21782;-69
2021/12/26 02:47:35;;;;;;;27.83;10.70;;;;;;;-9.28;100.00;99773.41;1808152;79;21090;-67
2021/12/26 02:50:07;;;;;;;24.23;10.13;;;;;;;-9.32;100.00;99771.56;1798184;79;21029;-68
2021/12/26 02:52:34;;;;;;;22.00;8.93;;;;;;;-9.35;100.00;99781.66;1813617;79;22209;-69
2021/12/26 02:55:00;;;;;;;24.97;10.63;;;;;;;-9.39;100.00;99787.45;1813418;79;21031;-68
2021/12/26 02:57:28;;;;;;;24.70;9.60;;;;;;;-9.42;100.00;99784.80;1813148;79;21491;-69
2021/12/26 02:59:54;;;;;;;25.63;10.47;;;;;;;-9.48;100.00;99782.00;1812944;79;21720;-69
2021/12/26 03:02:21;;;;;;;23.07;9.47;;;;;;;-9.53;100.00;99781.42;1812935;79;21172;-68
2021/12/26 03:04:49;;;;;;;21.97;9.30;;;;;;;-9.59;100.00;99785.41;1818594;78;21061;-69
2021/12/26 03:07:17;;;;;;;26.33;10.50;;;;;;;-9.69;100.00;99786.75;1820059;78;21041;-70
2021/12/26 03:09:46;;;;;;;31.47;11.90;;;;;;;-9.75;100.00;99791.64;1787908;80;21140;-69
2021/12/26 03:12:13;;;;;;;34.97;11.80;;;;;;;-9.83;100.00;99800.65;1820172;78;21103;-70
2021/12/26 03:14:40;;;;;;;27.93;11.33;;;;;;;-9.92;100.00;99802.01;1788008;80;20985;-74
2021/12/26 03:17:09;;;;;;;29.57;12.23;;;;;;;-9.99;100.00;99808.95;1820469;78;21037;-74
2021/12/26 03:19:36;;;;;;;34.17;12.47;;;;;;;-10.06;100.00;99810.79;1788033;80;21025;-73
2021/12/26 03:22:04;;;;;;;32.63;14.43;;;;;;;-10.11;100.00;99814.84;1820244;78;22209;-74
2021/12/26 03:24:32;;;;;;;27.87;12.30;;;;;;;-10.15;100.00;99814.24;1788033;80;21261;-74
2021/12/26 03:27:02;;;;;;;25.90;12.13;;;;;;;-10.18;100.00;99807.76;1820188;78;21100;-74
2021/12/26 03:29:29;;;;;;;32.23;12.90;;;;;;;-10.24;100.00;99816.00;1788218;80;21085;-69
2021/12/26 03:31:56;;;;;;;27.37;11.53;;;;;;;-10.29;100.00;99814.12;1820258;78;21540;-70
2021/12/26 03:34:22;;;;;;;27.60;11.90;;;;;;;-10.32;100.00;99821.64;1788125;80;21564;-71
2021/12/26 03:36:52;;;;;;;25.37;10.87;;;;;;;-10.33;100.00;99817.34;1820227;78;21060;-69
2021/12/26 03:39:20;;;;;;;27.95;11.65;;;;;;;-10.32;100.00;99816.55;1788407;80;21100;-70
2021/12/26 03:41:47;;;;;;;23.07;9.20;;;;;;;-10.29;100.00;99815.39;1820381;78;21002;-71
2021/12/26 03:44:13;;;;;;;26.43;10.10;;;;;;;-10.25;100.00;99817.23;1788137;80;21049;-71
2021/12/26 03:46:41;;;;;;;23.47;9.90;;;;;;;-10.21;100.00;99815.28;1820406;78;21536;-70
2021/12/26 03:49:07;;;;;;;36.73;10.40;;;;;;;-10.18;100.00;99811.17;1788222;80;21022;-73
2021/12/26 03:51:35;;;;;;;28.93;10.67;;;;;;;-10.20;100.00;99817.02;1820399;78;21026;-72
2021/12/26 03:54:05;;;;;;;28.30;11.33;;;;;;;-10.19;100.00;99816.19;1788078;80;21041;-72
2021/12/26 03:56:32;;;;;;;27.22;11.48;;;;;;;-10.21;100.00;99816.56;1820612;78;21411;-73
2021/12/26 03:59:00;;;;;;;28.97;10.20;;;;;;;-10.21;100.00;99817.83;1787194;79;21267;-73
2021/12/26 04:01:27;;;;;;;31.57;10.33;;;;;;;-10.22;100.00;99816.08;1820073;78;21052;-73
2021/12/26 04:03:54;;;;;;;36.80;13.47;;;;;;;-10.24;100.00;99821.09;1786174;80;21573;-74
2021/12/26 04:06:22;;;;;;;31.03;12.33;;;;;;;-10.28;100.00;99817.13;1782627;80;21357;-73
2021/12/26 04:08:51;;;;;;;25.33;11.47;;;;;;;-10.33;100.00;99822.44;1783145;80;21094;-72
2021/12/26 04:11:17;;;;;;;38.30;12.77;;;;;;;-10.40;100.00;99822.20;1782676;80;21071;-72
2021/12/26 04:13:45;;;;;;;33.33;12.57;;;;;;;-10.45;100.00;99822.80;1782930;80;21555;-73
2021/12/26 04:16:12;;;;;;;34.63;12.23;;;;;;;-10.50;100.00;99822.61;1782927;80;21031;-73
2021/12/26 04:18:38;;;;;;;30.67;10.90;;;;;;;-10.54;100.00;99828.36;1783130;80;21554;-75
2021/12/26 04:21:07;;;;;;;26.57;9.90;;;;;;;-10.59;100.00;99828.58;1786425;80;21033;-73
2021/12/26 04:23:37;;;;;;;22.07;8.85;;;;;;;-10.66;100.00;99826.17;1786422;80;21602;-73
2021/12/26 04:26:04;;;;;;;29.43;10.33;;;;;;;-10.70;100.00;99828.11;1786258;80;21006;-73
2021/12/26 04:28:30;;;;;;;29.13;10.67;;;;;;;-10.73;100.00;99835.63;1815204;79;21034;-73
2021/12/26 04:30:58;;;;;;;26.87;9.77;;;;;;;-10.78;100.00;99840.52;1814697;79;21027;-72
2021/12/26 04:33:26;;;;;;;31.07;10.93;;;;;;;-10.81;100.00;99840.39;1815171;79;21010;-76
2021/12/26 04:35:52;;;;;;;31.43;11.87;;;;;;;-10.82;100.00;99832.27;1814774;78;21142;-76
2021/12/26 04:38:21;;;;;;;31.23;11.00;;;;;;;-10.81;100.00;99843.31;1814870;79;21117;-74
2021/12/26 04:40:50;;;;;;;27.97;9.80;;;;;;;-10.82;100.00;99837.36;1794080;79;21105;-75
2021/12/26 04:43:23;;;;;;;27.87;10.83;;;;;;;-10.79;100.00;99840.06;1780973;80;21111;-66
2021/12/26 04:45:55;;;;;;;21.73;10.20;;;;;;;-10.73;100.00;99841.13;1804791;77;21034;-69
2021/12/26 04:48:32;;;;;;;29.37;11.63;;;;;;;-10.71;100.00;99840.38;1794587;79;22334;-68
2021/12/26 04:50:59;;;;;;;34.07;11.73;;;;;;;-10.69;100.00;99843.86;1767038;80;21108;-66
2021/12/26 04:53:25;;;;;;;28.53;11.87;;;;;;;-10.67;100.00;99849.89;1768540;79;21045;-66
2021/12/26 04:55:52;;;;;;;28.33;11.77;;;;;;;-10.69;100.00;99846.41;1761693;80;21532;-66
2021/12/26 04:58:18;;;;;;;30.53;10.67;;;;;;;-10.70;100.00;99845.92;1747499;80;21058;-67
2021/12/26 05:00:45;;;;;;;21.33;8.30;;;;;;;-10.67;100.00;99854.09;1777945;80;21840;-67
2021/12/26 05:03:12;;;;;;;23.63;9.60;;;;;;;-10.67;100.00;99849.00;1770900;79;21081;-68
2021/12/26 05:05:38;;;;;;;21.70;8.60;;;;;;;-10.68;100.00;99852.36;1757390;80;21048;-67
2021/12/26 05:08:06;;;;;;;20.87;8.73;;;;;;;-10.68;100.00;99862.54;1776814;78;21021;-67
2021/12/26 05:10:35;;;;;;;22.85;8.55;;;;;;;-10.69;100.00;99864.63;1790105;79;21084;-68
2021/12/26 05:13:03;;;;;;;23.03;8.87;;;;;;;-10.70;100.00;99865.42;1793897;79;22183;-67
2021/12/26 05:15:31;;;;;;;20.77;9.10;;;;;;;-10.70;100.00;99865.42;1764207;81;21017;-68
2021/12/26 05:17:59;;;;;;;24.90;9.53;;;;;;;-10.71;100.00;99863.69;1794163;79;21655;-67
2021/12/26 05:20:27;;;;;;;26.47;10.33;;;;;;;-10.75;100.00;99863.94;1786752;79;22040;-69
2021/12/26 05:22:55;;;;;;;35.57;11.30;;;;;;;-10.78;100.00;99871.45;1758832;80;21108;-67
2021/12/26 05:25:23;;;;;;;29.97;10.73;;;;;;;-10.84;100.00;99873.31;1780473;80;21926;-67
2021/12/26 05:27:51;;;;;;;22.87;9.10;;;;;;;-10.88;100.00;99880.36;1766928;80;21611;-66
2021/12/26 05:30:19;;;;;;;28.87;12.07;;;;;;;-10.95;100.00;99883.41;1764451;78;21073;-68
2021/12/26 05:32:46;;;;;;;20.83;10.43;;;;;;;-11.04;100.00;99882.99;1748064;80;21081;-67
2021/12/26 05:35:14;;;;;;;31.67;11.90;;;;;;;-11.12;100.00;99876.70;1763180;80;21124;-68
2021/12/26 05:37:42;;;;;;;34.07;13.67;;;;;;;-11.23;100.00;99878.34;1760705;80;21122;-68
2021/12/26 05:40:10;;;;;;;42.03;16.43;;;;;;;-11.27;100.00;99886.66;1802352;78;21528;-68
2021/12/26 05:42:41;;;;;;;46.20;16.77;;;;;;;-11.32;100.00;99884.28;1799277;78;21535;-67
2021/12/26 05:45:10;;;;;;;39.20;16.07;;;;;;;-11.36;100.00;99890.05;1785838;78;21087;-67
2021/12/26 05:47:37;;;;;;;;;;;;;;;-11.40;100.00;99893.23;1788441;78;21182;-66
2021/12/26 05:50:07;;;;;;;39.20;14.90;;;;;;;-11.41;100.00;99900.38;1803026;77;21139;-68
2021/12/26 05:52:34;;;;;;;41.70;15.57;;;;;;;-11.41;100.00;99895.29;1803179;78;21076;-69
2021/12/26 05:55:04;;;;;;;36.90;13.67;;;;;;;-11.40;100.00;99905.53;1785861;79;21077;-68
2021/12/26 05:57:30;;;;;;;37.90;12.90;;;;;;;-11.35;100.00;99901.94;1785723;78;21571;-68
2021/12/26 05:59:57;;;;;;;36.73;12.53;;;;;;;-11.28;100.00;99901.42;1784571;78;21009;-68
2021/12/26 06:02:24;;;;;;;31.37;12.60;;;;;;;-11.11;100.00;99893.69;1815565;78;21122;-68
2021/12/26 06:04:50;;;;;;;31.40;12.87;;;;;;;-10.91;100.00;99898.01;1804417;78;21088;-68
2021/12/26 06:07:18;;;;;;;33.73;14.03;;;;;;;-10.73;100.00;99904.73;1785305;78;21563;-68
2021/12/26 06:09:44;;;;;;;38.30;13.73;;;;;;;-10.62;100.00;99908.63;1785563;80;21018;-68
2021/12/26 06:12:12;;;;;;;31.57;13.67;;;;;;;-10.52;100.00;99908.20;1785542;80;21547;-67
2021/12/26 06:14:39;;;;;;;32.60;13.90;;;;;;;-10.46;100.00;99908.48;1782515;78;21902;-68
2021/12/26 06:17:06;;;;;;;31.83;13.70;;;;;;;-10.40;100.00;99906.22;1766098;81;21180;-67
2021/12/26 06:19:34;;;;;;;35.43;14.20;;;;;;;-10.35;100.00;99907.27;1762260;81;22177;-67
2021/12/26 06:22:15;;;;;;;36.33;15.07;;;;;;;-10.29;100.00;99910.88;1773085;79;21090;-69
2021/12/26 06:25:00;;;;;;;31.30;11.77;;;;;;;-10.28;100.00;99913.47;1766275;81;21532;-68
2021/12/26 06:27:34;;;;;;;40.23;14.27;;;;;;;-10.31;100.00;99915.89;1781930;78;21203;-67
2021/12/26 06:30:14;;;;;;;55.27;19.67;;;;;;;-10.33;100.00;99916.64;1731028;79;21052;-69
2021/12/26 06:32:59;;;;;;;74.23;25.23;;;;;;;-10.39;100.00;99914.71;1779948;79;21537;-67
2021/12/26 06:35:44;;;;;;;57.80;20.07;;;;;;;-10.41;100.00;99914.64;1779056;79;21104;-67
2021/12/26 06:38:33;;;;;;;60.57;21.57;;;;;;;-10.42;100.00;99916.73;1753472;80;21079;-68
2021/12/26 06:41:18;;;;;;;46.47;16.83;;;;;;;-10.39;100.00;99923.63;1745739;81;23214;-65
2021/12/26 06:43:53;;;;;;;50.97;18.70;;;;;;;-10.39;100.00;99927.03;1748831;79;21101;-67
2021/12/26 06:46:38;;;;;;;53.60;19.13;;;;;;;-10.36;100.00;99928.42;1790565;79;21088;-68
2021/12/26 06:49:09;;;;;;;60.57;22.73;;;;;;;-10.33;100.00;99928.09;1742299;79;21638;-66
2021/12/26 06:51:36;;;;;;;56.07;21.67;;;;;;;-10.31;100.00;99931.17;1786902;79;21579;-67
2021/12/26 06:54:02;;;;;;;52.57;19.60;;;;;;;-10.25;100.00;99935.64;1803655;79;21873;-68
2021/12/26 06:56:31;;;;;;;47.17;19.47;;;;;;;-10.19;100.00;99934.61;1777017;79;21055;-67
2021/12/26 06:58:57;;;;;;;50.23;20.07;;;;;;;-10.12;100.00;99930.27;1773167;79;21041;-66
2021/12/26 07:01:24;;;;;;;53.40;19.90;;;;;;;-10.05;100.00;99928.45;1793257;79;21032;-67
2021/12/26 07:03:51;;;;;;;53.37;20.07;;;;;;;-10.01;100.00;99920.52;1789923;79;21037;-66
2021/12/26 07:06:17;;;;;;;63.50;25.63;;;;;;;-9.94;100.00;99931.05;1819755;78;21563;-66
2021/12/26 07:08:44;;;;;;;61.70;23.60;;;;;;;-9.86;100.00;99929.22;1787832;80;21009;-67
2021/12/26 07:11:16;;;;;;;69.10;25.30;;;;;;;-9.77;100.00;99929.59;1819969;78;21057;-67
2021/12/26 07:13:42;;;;;;;56.60;21.10;;;;;;;-9.58;100.00;99925.69;1788205;80;27930;-67
2021/12/26 07:16:09;;;;;;;69.10;24.47;;;;;;;-8.99;100.00;99920.33;1819957;78;21006;-67
2021/12/26 07:20:44;;;;;;;61.67;23.53;;;;;;;-7.40;100.00;99905.77;1813064;79;27209;-66
2021/12/26 07:23:25;;;;;;;58.70;22.30;;;;;;;-6.64;100.00;99908.47;1764549;80;21630;-66
2021/12/26 07:25:53;;;;;;;54.17;21.47;;;;;;;-5.80;100.00;99912.38;1764993;80;21147;-67
2021/12/26 07:28:21;;;;;;;59.60;24.17;;;;;;;-5.10;100.00;99916.20;1739716;80;21059;-67
2021/12/26 07:31:08;;;;;;;57.47;24.37;;;;;;;-4.56;100.00;99911.77;1740283;81;21089;-66
2021/12/26 07:33:35;;;;;;;55.70;23.13;;;;;;;-4.01;97.23;99908.98;1765347;81;21042;-66
2021/12/26 07:36:05;;;;;;;64.65;29.95;;;;;;;-3.56;90.70;99908.48;1723516;83;21594;-68
2021/12/26 07:38:34;;;;;;;61.92;26.35;;;;;;;-3.14;88.13;99907.83;1707735;83;21135;-67
2021/12/26 07:41:00;;;;;;;62.53;28.17;;;;;;;-2.72;84.74;99904.11;1702037;83;21528;-67
2021/12/26 07:43:29;;;;;;;64.87;27.85;;;;;;;-2.28;82.24;99903.35;1697967;84;21520;-67
2021/12/26 07:46:09;;;;;;;52.57;24.33;;;;;;;-1.92;79.10;99908.05;1681506;84;21508;-68
2021/12/26 07:48:35;;;;;;;59.25;26.87;;;;;;;-1.65;75.36;99906.58;1710972;83;21128;-67
2021/12/26 07:51:04;;;;;;;49.50;20.05;;;;;;;-1.32;77.17;99903.39;1714809;83;21155;-66
2021/12/26 07:53:50;;;;;;;39.03;17.45;;;;;;;-0.93;73.95;99903.66;1698873;83;21604;-67
2021/12/26 07:56:21;;;;;;;45.30;19.62;;;;;;;-0.59;73.10;99909.02;1678118;83;21647;-67
2021/12/26 07:59:06;;;;;;;50.28;23.60;;;;;;;-0.15;74.39;99911.77;1708322;83;21615;-67
2021/12/26 08:01:51;;;;;;;45.35;22.37;;;;;;;0.19;66.80;99911.85;1707027;83;21077;-66
2021/12/26 08:04:36;;;;;;;46.00;22.40;;;;;;;0.43;62.74;99903.23;1709906;83;22444;-67
2021/12/26 08:07:14;;;;;;;38.60;17.92;;;;;;;0.67;61.73;99906.67;1674988;84;21041;-67
2021/12/26 08:09:40;;;;;;;34.18;17.32;;;;;;;0.77;60.93;99906.68;1669441;84;21575;-67
2021/12/26 08:12:09;;;;;;;37.30;18.70;;;;;;;0.81;59.52;99906.27;1701927;83;21081;-68
2021/12/26 08:14:37;;;;;;;42.98;19.17;;;;;;;0.87;58.94;99904.94;1707976;83;21143;-68
2021/12/26 08:17:05;;;;;;;39.08;19.17;;;;;;;1.01;58.76;99896.73;1710419;83;21152;-68
2021/12/26 08:19:33;;;;;;;38.15;19.17;;;;;;;1.18;57.65;99895.37;1705165;83;21066;-67
2021/12/26 08:21:59;;;;;;;38.17;18.65;;;;;;;1.19;55.44;99891.05;1762195;81;21069;-67
2021/12/26 08:24:26;;;;;;;32.75;16.57;;;;;;;1.00;56.70;99891.09;1760857;81;21054;-66
2021/12/26 08:26:54;;;;;;;39.35;18.05;;;;;;;1.29;57.24;99886.28;1762192;81;21643;-67
2021/12/26 08:29:22;;;;;;;38.20;18.87;;;;;;;1.60;54.40;99883.55;1762330;81;21136;-67
2021/12/26 08:31:54;;;;;;;44.33;19.42;;;;;;;1.82;54.15;99887.78;1701925;83;21131;-67
2021/12/26 08:34:22;;;;;;;36.88;16.80;;;;;;;2.11;54.20;99886.73;1757563;81;21041;-66
2021/12/26 08:37:02;;;;;;;31.73;14.13;;;;;;;2.62;53.06;99887.65;1749600;81;21104;-66
2021/12/26 08:39:32;;;;;;;24.18;12.93;;;;;;;2.90;49.96;99881.78;1764599;81;21089;-68
2021/12/26 08:41:58;;;;;;;26.12;13.70;;;;;;;2.48;48.74;99880.81;1714478;83;21145;-67
2021/12/26 08:44:25;;;;;;;24.52;12.00;;;;;;;2.29;50.23;99871.45;1760090;81;21054;-68
2021/12/26 08:46:52;;;;;;;22.22;11.20;;;;;;;2.30;51.02;99874.05;1735868;81;21071;-69
2021/12/26 08:49:19;;;;;;;27.02;12.58;;;;;;;2.60;50.68;99874.69;1734674;82;21140;-68
2021/12/26 08:51:46;;;;;;;22.42;11.08;;;;;;;2.69;49.77;99872.00;1746493;81;21564;-69
2021/12/26 08:54:13;;;;;;;29.37;12.07;;;;;;;2.92;49.92;99868.30;1745668;81;21530;-69
2021/12/26 08:56:40;;;;;;;20.27;10.38;;;;;;;3.09;49.61;99865.09;1756066;81;21164;-68
2021/12/26 08:59:06;;;;;;;23.90;10.23;;;;;;;3.13;49.13;99858.98;1749506;81;21203;-69
2021/12/26 09:01:34;;;;;;;21.30;9.35;;;;;;;3.19;49.48;99853.28;1756880;81;22237;-67
2021/12/26 09:04:02;;;;;;;24.12;10.58;;;;;;;2.99;50.96;99858.28;1729526;81;21056;-68
2021/12/26 09:06:28;;;;;;;22.62;11.05;;;;;;;2.95;51.09;99856.58;1749364;81;21155;-66
2021/12/26 09:08:56;;;;;;;24.20;9.85;;;;;;;3.06;46.89;99861.23;1755504;81;21078;-69
2021/12/26 09:11:23;;;;;;;21.95;10.15;;;;;;;3.05;48.74;99862.09;1697399;83;21552;-69
2021/12/26 09:13:50;;;;;;;21.02;10.50;;;;;;;3.48;49.58;99852.50;1758831;81;21010;-70
2021/12/26 09:16:17;;;;;;;21.35;10.32;;;;;;;3.79;47.22;99838.61;1759583;81;21104;-66
2021/12/26 09:18:45;;;;;;;25.77;11.12;;;;;;;4.09;44.23;99851.22;1759139;81;21041;-69
2021/12/26 09:21:12;;;;;;;19.17;9.95;;;;;;;4.36;46.02;99848.19;1752193;81;21085;-70
2021/12/26 09:23:38;;;;;;;24.25;10.18;;;;;;;4.95;43.89;99845.89;1752342;81;21656;-65
2021/12/26 09:26:05;;;;;;;19.00;10.43;;;;;;;5.36;42.55;99836.37;1755033;81;21062;-67
2021/12/26 09:28:36;;;;;;;17.85;9.43;;;;;;;5.45;42.33;99830.95;1751693;81;22002;-69
2021/12/26 09:31:00;;;;;;;18.37;9.33;;;;;;;5.82;40.42;99835.39;1693129;83;21833;-68
2021/12/26 09:33:27;;;;;;;16.57;9.05;;;;;;;5.98;39.39;99840.74;1699360;84;21058;-66
2021/12/26 09:35:54;;;;;;;18.50;8.75;;;;;;;6.09;39.45;99837.86;1708388;84;21121;-66
2021/12/26 09:38:20;;;;;;;18.37;9.25;;;;;;;5.82;38.64;99841.92;1752916;81;21085;-67
2021/12/26 09:40:48;;;;;;;20.82;10.00;;;;;;;4.98;39.07;99843.21;1749845;82;21520;-66
2021/12/26 09:43:15;;;;;;;20.85;10.18;;;;;;;4.61;39.91;99835.60;1749745;81;22206;-66
2021/12/26 09:45:41;;;;;;;20.60;9.28;;;;;;;4.54;39.84;99843.56;1753265;81;21525;-66
2021/12/26 09:48:08;;;;;;;18.17;9.60;;;;;;;4.41;40.11;99845.05;1752097;81;21082;-67
2021/12/26 09:50:34;;;;;;;21.30;9.40;;;;;;;4.58;40.54;99837.42;1757019;81;21081;-66
2021/12/26 09:53:01;;;;;;;20.02;9.30;;;;;;;4.69;40.19;99838.06;1751392;81;21113;-66
2021/12/26 09:55:29;;;;;;;19.60;9.58;;;;;;;4.59;40.05;99831.30;1741458;81;21473;-66
2021/12/26 09:57:56;;;;;;;21.85;9.90;;;;;;;4.68;39.94;99825.92;1741885;81;21143;-66
2021/12/26 10:00:39;;;;;;;18.65;9.23;;;;;;;4.84;39.39;99831.27;1754801;81;21050;-66
2021/12/26 10:03:20;;;;;;;20.48;10.15;;;;;;;4.99;39.25;99820.13;1756432;81;21018;-68
2021/12/26 10:06:18;;;;;;;22.00;10.15;;;;;;;5.29;39.17;99821.72;1728308;81;21033;-67
2021/12/26 10:09:08;;;;;;;20.65;11.18;;;;;;;5.51;38.44;99816.47;1752242;81;21337;-68
2021/12/26 10:11:38;;;;;;;19.35;10.20;;;;;;;5.87;38.43;99823.10;1748352;81;21050;-68
2021/12/26 10:14:07;;;;;;;;;;;;;;;5.92;36.13;99822.55;1752101;81;21113;-67
2021/12/26 10:16:43;;;;;;;19.48;9.03;;;;;;;5.99;37.01;99825.91;1753702;81;20173;-69
2021/12/26 10:19:09;;;;;;;21.77;10.48;;;;;;;6.04;36.55;99827.97;1750140;81;21623;-69
2021/12/26 10:21:54;;;;;;;24.30;10.50;;;;;;;5.80;36.90;99825.45;1749738;81;21191;-70
2021/12/26 10:24:29;;;;;;;20.50;10.28;;;;;;;5.49;37.10;99820.86;1737633;81;21089;-69
2021/12/26 10:27:04;;;;;;;22.02;9.65;;;;;;;5.26;37.73;99832.64;1692227;83;21595;-70
2021/12/26 10:29:35;;;;;;;21.40;10.48;;;;;;;5.43;38.06;99827.55;1713698;83;21079;-70
2021/12/26 10:32:11;;;;;;;18.35;9.68;;;;;;;5.86;38.51;99827.89;1751272;81;21045;-69
2021/12/26 10:34:46;;;;;;;22.82;11.18;;;;;;;6.37;38.41;99824.97;1745700;81;21139;-71
2021/12/26 10:37:21;;;;;;;18.20;9.68;;;;;;;6.69;41.78;99822.00;1717588;81;21061;-69
2021/12/26 10:39:59;;;;;;;20.23;10.03;;;;;;;7.11;45.17;99816.07;1745075;81;21042;-69
2021/12/26 10:42:30;;;;;;;18.67;9.75;;;;;;;7.44;44.09;99817.77;1745353;81;21099;-69
2021/12/26 10:45:09;;;;;;;17.67;9.70;;;;;;;7.54;37.18;99819.20;1743091;82;21587;-68
2021/12/26 10:47:50;;;;;;;20.80;10.85;;;;;;;7.24;37.54;99815.72;1749183;81;21537;-68
2021/12/26 10:50:20;;;;;;;21.52;9.85;;;;;;;6.95;37.17;99814.78;1748887;81;21073;-70
2021/12/26 10:53:00;;;;;;;20.97;10.68;;;;;;;6.90;35.53;99817.52;1749672;81;21022;-70
2021/12/26 10:55:36;;;;;;;19.45;10.32;;;;;;;7.04;36.50;99810.60;1746315;80;21884;-71
2021/12/26 10:58:09;;;;;;;23.12;10.80;;;;;;;7.39;36.47;99811.81;1724243;82;21556;-70
2021/12/26 11:00:43;;;;;;;20.15;9.60;;;;;;;7.46;38.18;99810.27;1749923;80;21081;-71
2021/12/26 11:03:13;;;;;;;19.17;9.35;;;;;;;7.62;37.55;99814.61;1748982;82;21076;-71
2021/12/26 11:05:44;;;;;;;18.37;8.78;;;;;;;7.49;35.67;99810.63;1749064;82;21544;-70
2021/12/26 11:08:16;;;;;;;17.07;8.55;;;;;;;7.31;36.91;99811.56;1751012;81;21071;-69
2021/12/26 11:10:50;;;;;;;17.60;9.50;;;;;;;7.11;35.14;99816.07;1750762;81;21552;-71
2021/12/26 11:13:24;;;;;;;17.92;9.80;;;;;;;6.71;34.98;99821.52;1745144;81;21477;-71
2021/12/26 11:15:58;;;;;;;18.80;9.43;;;;;;;6.08;35.87;99821.32;1716783;82;21049;-71
2021/12/26 11:18:25;;;;;;;16.30;8.28;;;;;;;5.75;35.81;99821.62;1713856;83;21041;-70
2021/12/26 11:20:56;;;;;;;15.32;7.55;;;;;;;5.35;37.42;99826.37;1711585;83;22059;-71
2021/12/26 11:23:30;;;;;;;15.65;8.03;;;;;;;5.19;37.11;99810.16;1738089;81;21041;-71
2021/12/26 11:26:05;;;;;;;20.48;8.40;;;;;;;5.24;37.86;99816.59;1702186;84;21085;-70
2021/12/26 11:28:36;;;;;;;17.87;8.98;;;;;;;5.28;39.76;99820.02;1757263;81;21065;-70
2021/12/26 11:31:08;;;;;;;22.87;9.05;;;;;;;5.38;39.95;99816.31;1750112;81;22223;-70
2021/12/26 11:33:36;;;;;;;20.25;8.55;;;;;;;5.80;39.71;99818.91;1739136;81;21050;-70